createdAt,value
2022-11-04T00:01:03.200Z,999.61
2022-11-04T00:05:07.899Z,999.7
2022-11-04T00:10:08.406Z,999.8
2022-11-04T00:15:08.121Z,999.99
2022-11-04T00:20:07.820Z,1000.16
2022-11-04T00:25:08.500Z,1000.25
2022-11-04T00:30:08.221Z,1000.32
2022-11-04T00:35:07.940Z,1000.39
2022-11-04T00:40:09.641Z,1000.39
2022-11-04T00:45:08.360Z,1000.49
2022-11-04T00:50:08.112Z,1000.56
2022-11-04T00:55:07.796Z,1000.56
2022-11-04T01:00:08.478Z,1000.68
2022-11-04T01:05:07.956Z,1000.79
2022-11-04T01:10:07.676Z,1000.69
2022-11-04T01:15:08.371Z,1000.64
2022-11-04T01:20:08.068Z,1000.58
2022-11-04T01:25:07.761Z,1000.83
2022-11-04T01:30:08.498Z,1000.83
2022-11-04T01:35:08.187Z,1000.88
2022-11-04T01:40:07.940Z,1000.79
2022-11-04T01:45:08.659Z,1000.83
2022-11-04T01:50:08.378Z,1000.94
2022-11-04T01:55:08.058Z,1001.07
2022-11-04T02:00:07.758Z,1001.07
2022-11-04T02:05:08.443Z,1001.31
2022-11-04T02:10:08.420Z,1001.32
2022-11-04T02:15:08.130Z,1001.35
2022-11-04T02:20:17.823Z,1001.47
2022-11-04T02:25:08.523Z,1001.62
2022-11-04T02:30:08.209Z,1001.59
2022-11-04T02:35:07.923Z,1001.65
2022-11-04T02:40:08.620Z,1001.68
2022-11-04T02:45:08.320Z,1001.66
2022-11-04T02:50:18.008Z,1001.72
2022-11-04T02:55:07.720Z,1001.61
2022-11-04T03:00:08.434Z,1001.59
2022-11-04T03:05:08.120Z,1001.68
2022-11-04T03:10:07.808Z,1001.66
2022-11-04T03:15:08.499Z,1001.79
2022-11-04T03:20:08.192Z,1001.92
2022-11-04T03:25:07.895Z,1001.91
2022-11-04T03:30:08.627Z,1001.99
2022-11-04T03:35:08.369Z,1002.08
2022-11-04T03:40:08.126Z,1002.18
2022-11-04T03:45:07.836Z,1002.2
2022-11-04T03:50:08.550Z,1002.23
2022-11-04T03:55:08.273Z,1002.2
2022-11-04T04:00:07.991Z,1002.29
2022-11-04T04:05:07.678Z,1002.26
2022-11-04T04:10:18.375Z,1002.27
2022-11-04T04:15:08.085Z,1002.3
2022-11-04T04:20:07.800Z,1002.42
2022-11-04T04:25:08.492Z,1002.51
2022-11-04T04:30:08.244Z,1002.49
2022-11-04T04:35:07.935Z,1002.56
2022-11-04T04:40:07.641Z,1002.49
2022-11-04T04:45:08.328Z,1002.55
2022-11-04T04:50:07.994Z,1002.49
2022-11-04T04:55:07.671Z,1002.61
2022-11-04T05:00:08.356Z,1002.67
2022-11-04T05:05:02.213Z,1002.7
2022-11-04T05:10:02.165Z,1002.69
2022-11-04T05:15:01.968Z,1002.79
2022-11-04T05:20:01.797Z,1002.85
2022-11-04T05:25:02.543Z,1002.96
2022-11-04T05:30:02.713Z,1002.93
2022-11-04T05:35:02.499Z,1002.99
2022-11-04T05:40:02.344Z,1002.98
2022-11-04T05:45:02.181Z,1002.98
2022-11-04T05:50:02.016Z,1003.16
2022-11-04T05:55:01.832Z,1003.23
2022-11-04T06:00:02.673Z,1003.36
2022-11-04T06:05:02.492Z,1003.4
2022-11-04T06:10:02.234Z,1003.48
2022-11-04T06:15:01.977Z,1003.49
2022-11-04T06:20:01.771Z,1003.57
2022-11-04T06:25:02.054Z,1003.71
2022-11-04T06:30:01.835Z,1003.76
2022-11-04T06:35:02.615Z,1003.74
2022-11-04T06:40:02.726Z,1003.86
2022-11-04T06:45:02.460Z,1003.87
2022-11-04T06:50:02.291Z,1003.85
2022-11-04T06:55:02.113Z,1003.91
2022-11-04T07:00:02.080Z,1003.98
2022-11-04T07:05:02.126Z,1003.96
2022-11-04T07:10:02.005Z,1003.96
2022-11-04T07:15:01.871Z,1004.05
2022-11-04T07:20:02.799Z,1004.11
2022-11-04T07:25:02.749Z,1004.1
2022-11-04T07:30:02.674Z,1004.13
2022-11-04T07:35:02.471Z,1004.22
2022-11-04T07:40:02.220Z,1004.24
2022-11-04T07:45:02.146Z,1004.41
2022-11-04T07:50:06.569Z,1004.31
2022-11-04T07:55:02.534Z,1004.4
2022-11-04T08:00:02.357Z,1004.42
2022-11-04T08:05:02.195Z,1004.41
2022-11-04T08:10:02.008Z,1004.55
2022-11-04T08:15:01.846Z,1004.5
2022-11-04T08:20:02.827Z,1004.59
2022-11-04T08:25:02.651Z,1004.71
2022-11-04T08:30:02.509Z,1004.92
2022-11-04T08:35:02.294Z,1004.94
2022-11-04T08:40:02.116Z,1004.97
2022-11-04T08:45:01.901Z,1005.09
2022-11-04T08:50:02.686Z,1005.11
2022-11-04T08:55:02.510Z,1005.2
2022-11-04T09:00:02.364Z,1005.14
2022-11-04T09:05:02.380Z,1005.25
2022-11-04T09:10:02.220Z,1005.4
2022-11-04T09:15:02.015Z,1005.38
2022-11-04T09:20:01.754Z,1005.29
2022-11-04T09:25:02.674Z,1005.23
2022-11-04T09:30:02.476Z,1005.17
2022-11-04T09:35:02.605Z,1005.22
2022-11-04T09:40:02.415Z,1005.33
2022-11-04T09:45:22.204Z,1005.36
2022-11-04T09:50:01.950Z,1005.47
2022-11-04T09:55:11.793Z,1005.59
2022-11-04T10:00:02.643Z,1005.71
2022-11-04T10:05:02.582Z,1005.61
2022-11-04T10:10:02.523Z,1005.68
2022-11-04T10:15:02.460Z,1005.75
2022-11-04T10:20:02.374Z,1005.7
2022-11-04T10:25:02.175Z,1005.67
2022-11-04T10:30:11.910Z,1005.56
2022-11-04T10:35:02.670Z,1005.63
2022-11-04T10:40:02.516Z,1005.65
2022-11-04T10:45:02.384Z,1005.77
2022-11-04T10:50:28.232Z,1005.73
2022-11-04T10:55:02.006Z,1005.76
2022-11-04T11:00:01.838Z,1005.74
2022-11-04T11:05:02.715Z,1005.84
2022-11-04T11:10:02.795Z,1005.92
2022-11-04T11:15:02.542Z,1006.06
2022-11-04T11:20:02.394Z,1006.02
2022-11-04T11:25:12.184Z,1006.0
2022-11-04T11:30:01.983Z,1006.04
2022-11-04T11:35:01.844Z,1006.07
2022-11-04T11:40:01.810Z,1006.13
2022-11-04T11:45:02.620Z,1006.05
2022-11-04T11:50:02.433Z,1006.08
2022-11-04T11:55:02.209Z,1006.12
2022-11-04T12:10:02.774Z,1006.24
2022-11-04T12:15:02.526Z,1006.46
2022-11-04T12:20:02.392Z,1006.48
2022-11-04T12:25:02.418Z,1006.54
2022-11-04T12:30:02.416Z,1006.44
2022-11-04T12:35:02.380Z,1006.55
2022-11-04T12:40:02.289Z,1006.48
2022-11-04T12:45:02.263Z,1006.71
2022-11-04T12:50:02.223Z,1006.69
2022-11-04T12:55:02.278Z,1006.79
2022-11-04T13:00:05.445Z,1006.76
2022-11-04T13:05:02.278Z,1006.67
2022-11-04T13:10:02.114Z,1006.65
2022-11-04T13:15:02.148Z,1006.76
2022-11-04T13:20:02.137Z,1006.77
2022-11-04T13:25:02.028Z,1006.79
2022-11-04T13:30:02.345Z,1006.76
2022-11-04T13:35:02.307Z,1006.84
2022-11-04T13:40:02.151Z,1006.97
2022-11-04T13:45:02.032Z,1006.9
2022-11-04T13:50:01.856Z,1006.93
2022-11-04T13:55:02.899Z,1007.05
2022-11-04T14:00:12.442Z,1007.07
2022-11-04T14:05:02.372Z,1007.16
2022-11-04T14:10:02.192Z,1007.3
2022-11-04T14:15:02.118Z,1007.45
2022-11-04T14:20:01.976Z,1007.5
2022-11-04T14:25:01.784Z,1007.56
2022-11-04T14:30:02.655Z,1007.61
2022-11-04T14:35:02.597Z,1007.7
2022-11-04T14:40:02.424Z,1007.74
2022-11-04T14:45:02.443Z,1007.72
2022-11-04T14:50:02.310Z,1007.83
2022-11-04T14:55:02.177Z,1008.07
2022-11-04T15:00:02.008Z,1008.15
2022-11-04T15:05:01.944Z,1008.29
2022-11-04T15:10:01.846Z,1008.28
2022-11-04T15:15:12.743Z,1008.26
2022-11-04T15:20:02.701Z,1008.47
2022-11-04T15:25:02.692Z,1008.61
2022-11-04T15:30:02.234Z,1008.67
2022-11-04T15:35:02.274Z,1008.64
2022-11-04T15:40:02.184Z,1008.75
2022-11-04T15:45:02.040Z,1008.86
2022-11-04T15:50:01.946Z,1008.81
2022-11-04T15:55:01.893Z,1008.87
2022-11-04T16:00:02.977Z,1009.06
2022-11-04T16:05:02.003Z,1009.0
2022-11-04T16:10:06.880Z,1009.02
2022-11-04T16:15:02.273Z,1009.09
2022-11-04T16:20:02.209Z,1009.08
2022-11-04T16:25:02.144Z,1009.09
2022-11-04T16:30:02.097Z,1009.19
2022-11-04T16:35:01.904Z,1009.14
2022-11-04T16:40:02.799Z,1009.32
2022-11-04T16:45:02.607Z,1009.32
2022-11-04T16:50:02.459Z,1009.41
2022-11-04T16:55:02.291Z,1009.53
2022-11-04T17:00:02.144Z,1009.6
2022-11-04T17:05:01.984Z,1009.59
2022-11-04T17:10:01.928Z,1009.69
2022-11-04T17:15:02.761Z,1009.68
2022-11-04T17:20:02.594Z,1009.84
2022-11-04T17:25:02.471Z,1009.98
2022-11-04T17:30:02.376Z,1010.11
2022-11-04T17:35:02.311Z,1010.12
2022-11-04T17:40:02.215Z,1010.24
2022-11-04T17:45:02.404Z,1010.33
2022-11-04T17:50:02.329Z,1010.3
2022-11-04T17:55:02.417Z,1010.43
2022-11-04T18:00:02.573Z,1010.44
2022-11-04T18:05:02.526Z,1010.45
2022-11-04T18:10:02.604Z,1010.46
2022-11-04T18:15:02.570Z,1010.48
2022-11-04T18:20:02.573Z,1010.5
2022-11-04T18:25:02.525Z,1010.48
2022-11-04T18:30:02.482Z,1010.51
2022-11-04T18:35:02.347Z,1010.57
2022-11-04T18:40:02.450Z,1010.64
2022-11-04T18:45:02.310Z,1010.58
2022-11-04T18:50:02.139Z,1010.67
2022-11-04T18:55:01.909Z,1010.68
2022-11-04T19:00:02.790Z,1010.76
2022-11-04T19:05:02.672Z,1010.71
2022-11-04T19:10:02.535Z,1010.76
2022-11-04T19:15:02.385Z,1010.81
2022-11-04T19:20:06.856Z,1010.86
2022-11-04T19:25:02.040Z,1010.91
2022-11-04T19:30:02.004Z,1011.01
2022-11-04T19:35:01.784Z,1011.06
2022-11-04T19:40:02.685Z,1011.01
2022-11-04T19:45:02.549Z,1011.1
2022-11-04T19:50:02.433Z,1011.15
2022-11-04T19:55:02.340Z,1011.24
2022-11-04T20:00:02.341Z,1011.37
2022-11-04T20:05:02.286Z,1011.42
2022-11-04T20:10:02.184Z,1011.46
2022-11-04T20:15:02.040Z,1011.48
2022-11-04T20:20:01.882Z,1011.58
2022-11-04T20:25:02.999Z,1011.63
2022-11-04T20:30:01.972Z,1011.63
2022-11-04T20:35:01.900Z,1011.85
2022-11-04T20:40:02.929Z,1011.88
2022-11-04T20:45:01.968Z,1011.94
2022-11-04T20:50:02.089Z,1011.94
2022-11-04T20:55:02.004Z,1012.16
2022-11-04T21:00:02.066Z,1012.2
2022-11-04T21:05:02.180Z,1012.46
2022-11-04T21:10:02.081Z,1012.54
2022-11-04T21:15:02.098Z,1012.73
2022-11-04T21:20:01.855Z,1012.78
2022-11-04T21:25:02.592Z,1012.85
2022-11-04T21:30:01.937Z,1012.83
2022-11-04T21:35:01.782Z,1012.95
2022-11-04T21:40:02.631Z,1012.96
2022-11-04T21:45:02.498Z,1013.01
2022-11-04T21:50:02.294Z,1013.06
2022-11-04T21:55:02.111Z,1013.15
2022-11-04T22:00:02.025Z,1013.19
2022-11-04T22:05:14.684Z,1013.29
2022-11-04T22:10:08.383Z,1013.25
2022-11-04T22:15:08.090Z,1013.31
2022-11-04T22:20:07.797Z,1013.29
2022-11-04T22:25:08.516Z,1013.37
2022-11-04T22:30:08.257Z,1013.41
2022-11-04T22:35:07.996Z,1013.39
2022-11-04T22:40:07.726Z,1013.35
2022-11-04T22:45:12.431Z,1013.42
2022-11-04T22:50:08.179Z,1013.4
2022-11-04T22:55:07.897Z,1013.42
2022-11-04T23:00:08.656Z,1013.51
2022-11-04T23:05:08.363Z,1013.58
2022-11-04T23:10:08.076Z,1013.69
2022-11-04T23:15:07.774Z,1013.57
2022-11-04T23:20:08.477Z,1013.57
2022-11-04T23:25:08.162Z,1013.6
2022-11-04T23:30:07.855Z,1013.56
2022-11-04T23:35:08.535Z,1013.61
2022-11-04T23:40:08.222Z,1013.6
2022-11-04T23:45:07.939Z,1013.65
2022-11-04T23:50:08.628Z,1013.64
2022-11-04T23:55:08.353Z,1013.78
